Carrigaline, Ireland
Current Conditions -  °F | °C
As of 4:00 PM on Thursday 18 Dec 2014 (Local Time) from EICK Reporting Station
Broken Clouds Broken Clouds  
Wind Chill: 54°   Ceiling: 600
Heat Index: 54°   Visibility: 6mi
Dew Point: 54°   Wind: 20mph
Humidity: 100%   Direction: 240°WSW
Pressure: 29.71"   Gusts: NA
Location:  51.81°N, 8.39°W
Report Text: EICK 181600Z 24017KT 9999 BKN006 BKN015 BKN040 12/12 Q1006 TEMPO 4000
Loading
Personal Weather Stations






























Interactive Weather Map New forecast layout! Learn more

10-Day Weather Forecast

Advertisements
Track Severe Weather on mobile